Time;durP1;ratioP1;P1;durP2;ratioP2;P2;SDS_P1;SDS_P2;PMS_P1;PMS_P2;Temp;Humidity;BMP_temperature;BMP_pressure;BME280_temperature;BME280_humidity;BME280_pressure;Samples;Min_cycle;Max_cycle;Signal;HPM_P1;HPM_P2
2023/07/18 00:02:09;;;;;;;;;;;16.10;68.80;;;;;;6275730;22;19907;-72
2023/07/18 00:04:34;;;;;;;;;;;16.10;68.70;;;;;;6275665;22;20237;-72
2023/07/18 00:07:00;;;;;;;;;;;16.10;68.60;;;;;;6275115;22;20364;-72
2023/07/18 00:09:26;;;;;;;;;;;16.10;68.80;;;;;;6275819;22;19903;-72
2023/07/18 00:11:51;;;;;;;;;;;16.10;69.00;;;;;;6248333;22;19912;-71
2023/07/18 00:14:17;;;;;;;;;;;16.20;69.30;;;;;;6275570;22;19907;-71
2023/07/18 00:16:44;;;;;;;;;;;16.20;69.40;;;;;;6275791;22;19911;-74
2023/07/18 00:19:12;;;;;;;;;;;16.20;69.10;;;;;;6275626;22;19910;-73
2023/07/18 00:21:38;;;;;;;;;;;16.20;68.60;;;;;;6275643;22;19915;-71
2023/07/18 00:24:04;;;;;;;;;;;16.10;68.20;;;;;;6275632;22;20381;-71
2023/07/18 00:26:30;;;;;;;;;;;16.10;68.30;;;;;;6276102;22;19942;-72
2023/07/18 00:28:55;;;;;;;;;;;16.00;68.30;;;;;;6275333;22;19904;-71
2023/07/18 00:31:21;;;;;;;;;;;16.00;68.20;;;;;;6275734;22;19994;-72
2023/07/18 00:33:47;;;;;;;;;;;16.00;68.10;;;;;;6275458;22;19910;-71
2023/07/18 00:36:13;;;;;;;;;;;15.90;68.00;;;;;;6275794;22;19961;-72
2023/07/18 00:38:38;;;;;;;;;;;15.90;68.00;;;;;;6274963;22;19972;-73
2023/07/18 00:41:04;;;;;;;;;;;15.90;68.00;;;;;;6274888;22;19911;-73
2023/07/18 00:43:33;;;;;;;;;;;15.80;68.00;;;;;;6275465;22;20341;-72
2023/07/18 00:45:59;;;;;;;;;;;15.80;67.80;;;;;;6275215;22;19919;-73
2023/07/18 00:48:27;;;;;;;;;;;15.80;67.90;;;;;;6275099;22;19910;-73
2023/07/18 00:50:52;;;;;;;;;;;15.80;67.90;;;;;;6275574;22;20326;-73
2023/07/18 00:53:18;;;;;;;;;;;15.70;68.30;;;;;;6275184;22;19918;-73
2023/07/18 00:55:44;;;;;;;;;;;15.70;68.50;;;;;;6275149;22;19912;-73
2023/07/18 00:58:09;;;;;;;;;;;15.70;68.80;;;;;;6275349;22;19986;-72
2023/07/18 01:00:35;;;;;;;;;;;15.70;68.90;;;;;;6275914;22;20274;-72
2023/07/18 01:03:00;;;;;;;;;;;15.80;69.20;;;;;;6275073;22;20024;-72
2023/07/18 01:05:26;;;;;;;;;;;15.80;69.40;;;;;;6274959;22;19924;-72
2023/07/18 01:07:51;;;;;;;;;;;15.80;69.40;;;;;;6248289;22;19903;-72
2023/07/18 01:10:18;;;;;;;;;;;15.80;69.40;;;;;;6274848;22;20284;-72
2023/07/18 01:12:44;;;;;;;;;;;15.80;69.20;;;;;;6274694;22;19903;-72
2023/07/18 01:15:13;;;;;;;;;;;15.80;69.00;;;;;;6275182;22;19936;-72
2023/07/18 01:17:42;;;;;;;;;;;15.80;68.90;;;;;;6275507;22;20383;-72
2023/07/18 01:20:12;;;;;;;;;;;15.80;68.70;;;;;;6247324;22;19907;-72
2023/07/18 01:22:38;;;;;;;;;;;15.80;68.30;;;;;;6275202;22;19907;-72
2023/07/18 01:25:03;;;;;;;;;;;15.80;68.10;;;;;;6274521;22;20001;-72
2023/07/18 01:27:30;;;;;;;;;;;15.80;68.00;;;;;;6275116;22;19911;-72
2023/07/18 01:29:55;;;;;;;;;;;15.70;67.90;;;;;;6274097;22;20336;-72
2023/07/18 01:32:21;;;;;;;;;;;15.70;67.90;;;;;;6274816;22;19978;-73
2023/07/18 01:34:46;;;;;;;;;;;15.70;68.20;;;;;;6274672;22;19904;-73
2023/07/18 01:37:15;;;;;;;;;;;15.70;68.50;;;;;;6275140;22;19954;-72
2023/07/18 01:39:40;;;;;;;;;;;15.70;68.90;;;;;;6274489;22;19908;-72
2023/07/18 01:42:06;;;;;;;;;;;15.70;68.80;;;;;;6274169;22;19914;-72
2023/07/18 01:44:33;;;;;;;;;;;15.70;68.30;;;;;;6275064;22;19929;-72
2023/07/18 01:46:59;;;;;;;;;;;15.60;68.00;;;;;;6274313;22;20292;-73
2023/07/18 01:49:24;;;;;;;;;;;15.60;67.90;;;;;;6274718;22;19903;-74
2023/07/18 01:51:50;;;;;;;;;;;15.60;68.00;;;;;;6274241;22;19957;-72
2023/07/18 01:54:15;;;;;;;;;;;15.60;68.60;;;;;;6275061;22;19960;-72
2023/07/18 01:56:41;;;;;;;;;;;15.60;68.60;;;;;;6274088;22;19958;-72
2023/07/18 01:59:06;;;;;;;;;;;15.60;68.70;;;;;;6274747;22;20185;-72
2023/07/18 02:01:32;;;;;;;;;;;15.60;68.60;;;;;;6274644;22;19918;-73
2023/07/18 02:03:57;;;;;;;;;;;15.50;68.40;;;;;;6275011;22;19907;-73
2023/07/18 02:06:24;;;;;;;;;;;15.50;68.10;;;;;;6275058;22;19918;-73
2023/07/18 02:08:51;;;;;;;;;;;15.50;67.90;;;;;;6274833;22;19907;-73
2023/07/18 02:11:16;;;;;;;;;;;15.40;67.90;;;;;;6274418;22;19982;-72
2023/07/18 02:13:42;;;;;;;;;;;15.40;67.70;;;;;;6247120;22;19993;-73
2023/07/18 02:16:07;;;;;;;;;;;15.30;67.70;;;;;;6274754;22;19918;-73
2023/07/18 02:18:33;;;;;;;;;;;15.30;67.70;;;;;;6274716;22;19904;-73
2023/07/18 02:20:59;;;;;;;;;;;15.30;67.80;;;;;;6274280;22;19927;-73
2023/07/18 02:23:24;;;;;;;;;;;15.20;68.00;;;;;;6274365;22;19953;-74
2023/07/18 02:25:49;;;;;;;;;;;15.20;68.10;;;;;;6274916;22;19923;-73
2023/07/18 02:28:15;;;;;;;;;;;15.20;68.10;;;;;;6247420;22;19908;-73
2023/07/18 02:30:42;;;;;;;;;;;15.20;68.00;;;;;;6274249;22;20245;-73
2023/07/18 02:33:08;;;;;;;;;;;15.20;67.90;;;;;;6273761;22;19931;-73
2023/07/18 02:35:33;;;;;;;;;;;15.20;67.90;;;;;;6274530;22;20321;-73
2023/07/18 02:37:58;;;;;;;;;;;15.20;67.90;;;;;;6274423;22;19913;-72
2023/07/18 02:40:24;;;;;;;;;;;15.10;67.80;;;;;;6274925;22;19912;-72
2023/07/18 02:42:49;;;;;;;;;;;15.10;67.80;;;;;;6273572;22;20326;-72
2023/07/18 02:45:15;;;;;;;;;;;15.00;67.70;;;;;;6274291;22;19915;-72
2023/07/18 02:47:40;;;;;;;;;;;15.00;67.80;;;;;;6247235;22;19948;-72
2023/07/18 02:50:07;;;;;;;;;;;15.00;67.90;;;;;;6247072;22;20490;-72
2023/07/18 02:52:32;;;;;;;;;;;15.00;67.80;;;;;;6273538;22;19903;-72
2023/07/18 02:54:57;;;;;;;;;;;14.90;67.70;;;;;;6274831;22;19921;-72
2023/07/18 02:57:23;;;;;;;;;;;14.90;67.60;;;;;;6274204;22;19960;-72
2023/07/18 02:59:48;;;;;;;;;;;14.80;67.60;;;;;;6274236;22;19985;-73
2023/07/18 03:02:14;;;;;;;;;;;14.80;67.70;;;;;;6273490;22;19982;-72
2023/07/18 03:04:39;;;;;;;;;;;14.80;67.80;;;;;;6274419;22;19907;-73
2023/07/18 03:07:05;;;;;;;;;;;14.80;67.70;;;;;;6246102;22;19929;-73
2023/07/18 03:09:34;;;;;;;;;;;14.80;67.90;;;;;;6276117;22;19904;-72
2023/07/18 03:11:59;;;;;;;;;;;14.80;67.80;;;;;;6275464;22;19956;-73
2023/07/18 03:14:25;;;;;;;;;;;14.70;67.80;;;;;;6276532;22;19934;-72
2023/07/18 03:16:50;;;;;;;;;;;14.80;68.00;;;;;;6249092;22;19911;-73
2023/07/18 03:19:16;;;;;;;;;;;14.80;68.10;;;;;;6276394;22;19903;-73
2023/07/18 03:21:43;;;;;;;;;;;14.80;68.20;;;;;;6276187;22;19943;-73
2023/07/18 03:24:08;;;;;;;;;;;14.70;68.10;;;;;;6275386;22;19961;-73
2023/07/18 03:26:36;;;;;;;;;;;14.70;68.10;;;;;;6276383;22;19977;-73
2023/07/18 03:29:03;;;;;;;;;;;14.70;68.10;;;;;;6275795;22;19907;-73
2023/07/18 03:31:29;;;;;;;;;;;14.70;68.10;;;;;;6276290;22;19915;-73
2023/07/18 03:33:54;;;;;;;;;;;14.80;68.70;;;;;;6275340;22;19954;-73
2023/07/18 03:36:20;;;;;;;;;;;14.80;69.10;;;;;;6276141;22;19911;-73
2023/07/18 03:38:45;;;;;;;;;;;14.90;69.30;;;;;;6275239;22;19903;-73
2023/07/18 03:41:11;;;;;;;;;;;15.00;69.40;;;;;;6275807;22;20317;-73
2023/07/18 03:43:36;;;;;;;;;;;15.10;69.40;;;;;;6272673;22;20501;-73
2023/07/18 03:46:02;;;;;;;;;;;15.10;69.40;;;;;;6274920;22;19919;-73
2023/07/18 03:48:28;;;;;;;;;;;15.20;69.50;;;;;;6274494;22;19930;-73
2023/07/18 03:50:53;;;;;;;;;;;15.30;69.40;;;;;;6247420;22;19923;-73
2023/07/18 03:53:19;;;;;;;;;;;15.30;69.60;;;;;;6245430;22;20333;-73
2023/07/18 03:55:44;;;;;;;;;;;15.40;70.00;;;;;;6274300;22;20326;-73
2023/07/18 03:58:10;;;;;;;;;;;15.60;70.00;;;;;;6275813;22;19990;-74
2023/07/18 04:00:35;;;;;;;;;;;15.60;69.50;;;;;;6247714;22;20481;-73
2023/07/18 04:03:00;;;;;;;;;;;15.60;69.20;;;;;;6274829;22;19903;-73
2023/07/18 04:05:26;;;;;;;;;;;15.60;69.00;;;;;;6274745;22;20322;-73
2023/07/18 04:07:52;;;;;;;;;;;15.60;68.90;;;;;;6275481;22;20349;-73
2023/07/18 04:10:17;;;;;;;;;;;15.70;69.10;;;;;;6274906;22;19911;-74
2023/07/18 04:12:43;;;;;;;;;;;15.70;69.30;;;;;;6274732;22;19950;-74
2023/07/18 04:15:09;;;;;;;;;;;15.70;69.50;;;;;;6274271;22;20313;-73
2023/07/18 04:17:35;;;;;;;;;;;15.80;70.00;;;;;;6275386;22;19939;-73
2023/07/18 04:20:00;;;;;;;;;;;16.00;70.50;;;;;;6274107;22;19945;-74
2023/07/18 04:22:26;;;;;;;;;;;16.20;70.80;;;;;;6275270;22;19987;-73
2023/07/18 04:24:55;;;;;;;;;;;16.50;71.10;;;;;;6274111;22;19916;-73
2023/07/18 04:27:21;;;;;;;;;;;16.70;71.10;;;;;;6275368;22;19911;-73
2023/07/18 04:29:46;;;;;;;;;;;17.00;71.10;;;;;;6275503;22;19903;-74
2023/07/18 04:32:12;;;;;;;;;;;17.30;71.20;;;;;;6272617;22;19910;-74
2023/07/18 04:34:37;;;;;;;;;;;17.70;71.60;;;;;;6275047;22;19909;-73
2023/07/18 04:37:03;;;;;;;;;;;18.00;71.50;;;;;;6275409;22;19955;-73
2023/07/18 04:39:30;;;;;;;;;;;18.40;71.30;;;;;;6275566;22;19961;-74
2023/07/18 04:41:55;;;;;;;;;;;18.70;70.90;;;;;;6275049;22;19946;-74
2023/07/18 04:44:22;;;;;;;;;;;18.70;70.00;;;;;;6274783;22;19970;-74
2023/07/18 04:46:47;;;;;;;;;;;18.70;69.10;;;;;;6276201;22;19918;-73
2023/07/18 04:49:13;;;;;;;;;;;18.50;68.70;;;;;;6248022;22;19911;-74
2023/07/18 04:51:38;;;;;;;;;;;18.50;68.60;;;;;;6248078;22;19919;-74
2023/07/18 04:54:04;;;;;;;;;;;18.60;69.70;;;;;;6275228;22;19953;-74
2023/07/18 04:56:29;;;;;;;;;;;18.70;69.80;;;;;;6274672;22;19918;-74
2023/07/18 04:58:55;;;;;;;;;;;18.80;69.60;;;;;;6275561;22;19926;-74
2023/07/18 05:01:20;;;;;;;;;;;19.10;70.50;;;;;;6275472;22;19911;-74
2023/07/18 05:03:46;;;;;;;;;;;19.50;71.10;;;;;;6275440;22;19910;-73
2023/07/18 05:06:12;;;;;;;;;;;19.90;71.00;;;;;;6247293;22;20152;-74
2023/07/18 05:08:38;;;;;;;;;;;20.20;70.60;;;;;;6275435;22;19957;-74
2023/07/18 05:11:03;;;;;;;;;;;20.60;71.40;;;;;;6275638;22;20343;-74
2023/07/18 05:13:29;;;;;;;;;;;21.00;71.70;;;;;;6274753;22;19938;-74
2023/07/18 05:15:58;;;;;;;;;;;21.50;71.40;;;;;;6274846;22;19907;-75
2023/07/18 05:18:24;;;;;;;;;;;22.00;71.90;;;;;;6275417;22;19907;-74
2023/07/18 05:20:52;;;;;;;;;;;22.50;72.00;;;;;;6275841;22;19911;-73
2023/07/18 05:23:18;;;;;;;;;;;23.00;72.00;;;;;;6274397;22;19966;-73
2023/07/18 05:25:43;;;;;;;;;;;23.50;72.20;;;;;;6274361;22;19911;-71
2023/07/18 05:28:09;;;;;;;;;;;24.00;71.80;;;;;;6274956;22;20325;-72
2023/07/18 05:30:34;;;;;;;;;;;24.50;71.40;;;;;;6274369;22;19911;-72
2023/07/18 05:33:00;;;;;;;;;;;24.90;70.50;;;;;;6274433;22;19907;-72
2023/07/18 05:35:25;;;;;;;;;;;25.30;70.40;;;;;;6274911;22;19915;-72
2023/07/18 05:37:51;;;;;;;;;;;25.70;70.30;;;;;;6275212;22;19915;-72
2023/07/18 05:40:16;;;;;;;;;;;26.00;69.80;;;;;;6274903;22;20229;-72
2023/07/18 05:42:43;;;;;;;;;;;26.30;69.90;;;;;;6274769;22;20344;-72
2023/07/18 05:45:09;;;;;;;;;;;26.80;69.80;;;;;;6274547;22;20386;-72
2023/07/18 05:47:35;;;;;;;;;;;27.30;70.00;;;;;;6274211;22;19911;-72
2023/07/18 05:50:01;;;;;;;;;;;27.70;69.20;;;;;;6275296;22;19907;-72
2023/07/18 05:52:26;;;;;;;;;;;28.00;68.30;;;;;;6274639;22;20337;-72
2023/07/18 05:54:52;;;;;;;;;;;28.40;68.20;;;;;;6274818;22;19907;-72
2023/07/18 05:57:18;;;;;;;;;;;28.70;68.00;;;;;;6247067;22;19912;-72
2023/07/18 05:59:44;;;;;;;;;;;29.10;68.00;;;;;;6274663;22;20222;-72
2023/07/18 06:02:09;;;;;;;;;;;29.40;67.70;;;;;;6274200;22;19903;-72
2023/07/18 06:04:36;;;;;;;;;;;29.80;67.50;;;;;;6274595;22;20321;-73
2023/07/18 06:07:01;;;;;;;;;;;30.10;67.00;;;;;;6274183;22;20322;-72
2023/07/18 06:09:27;;;;;;;;;;;30.40;67.00;;;;;;6274482;22;19910;-71
2023/07/18 06:11:52;;;;;;;;;;;30.70;67.10;;;;;;6274631;22;19945;-72
2023/07/18 06:14:18;;;;;;;;;;;31.00;65.70;;;;;;6274757;22;19912;-71
2023/07/18 06:16:45;;;;;;;;;;;31.20;65.60;;;;;;6274194;22;20273;-73
2023/07/18 06:19:12;;;;;;;;;;;31.40;65.10;;;;;;6274507;22;19903;-71
2023/07/18 06:21:37;;;;;;;;;;;31.70;65.20;;;;;;6274509;22;19915;-73
2023/07/18 06:24:03;;;;;;;;;;;31.90;65.20;;;;;;6274264;22;19987;-73
2023/07/18 06:26:28;;;;;;;;;;;32.20;64.10;;;;;;6274721;22;19915;-73
2023/07/18 06:28:54;;;;;;;;;;;32.50;64.20;;;;;;6273929;22;19904;-73
2023/07/18 06:31:19;;;;;;;;;;;32.70;64.40;;;;;;6274385;22;19990;-73
2023/07/18 06:33:45;;;;;;;;;;;32.90;64.40;;;;;;6274122;22;19946;-73
2023/07/18 06:36:10;;;;;;;;;;;33.20;63.70;;;;;;6274788;22;19911;-72
2023/07/18 06:38:37;;;;;;;;;;;33.40;62.10;;;;;;6273801;22;19926;-73
2023/07/18 06:41:03;;;;;;;;;;;33.50;62.40;;;;;;6274362;22;20314;-73
2023/07/18 06:43:28;;;;;;;;;;;33.60;61.30;;;;;;6274795;22;19953;-73
2023/07/18 06:45:54;;;;;;;;;;;33.60;58.10;;;;;;6276542;22;20003;-73
2023/07/18 06:48:19;;;;;;;;;;;33.60;60.60;;;;;;6275964;22;19908;-73
2023/07/18 06:50:46;;;;;;;;;;;33.70;61.80;;;;;;6276585;22;19911;-74
2023/07/18 06:53:11;;;;;;;;;;;33.90;61.70;;;;;;6276209;22;20034;-73
2023/07/18 06:55:37;;;;;;;;;;;34.30;62.10;;;;;;6276074;22;20377;-73
2023/07/18 06:58:03;;;;;;;;;;;34.50;61.60;;;;;;6275804;22;20252;-73
2023/07/18 07:00:29;;;;;;;;;;;34.70;60.00;;;;;;6276371;22;19915;-73
2023/07/18 07:02:54;;;;;;;;;;;34.90;58.60;;;;;;6275940;22;19978;-72
2023/07/18 07:05:20;;;;;;;;;;;35.00;58.20;;;;;;6276078;22;20341;-73
2023/07/18 07:07:45;;;;;;;;;;;35.20;57.20;;;;;;6276324;22;20337;-73
2023/07/18 07:10:11;;;;;;;;;;;35.20;56.60;;;;;;6275697;22;20281;-73
2023/07/18 07:12:36;;;;;;;;;;;35.20;56.70;;;;;;6275772;22;19968;-73
2023/07/18 07:15:02;;;;;;;;;;;35.30;57.60;;;;;;6248787;22;19950;-73
2023/07/18 07:17:27;;;;;;;;;;;35.40;55.80;;;;;;6275976;22;19960;-72
2023/07/18 07:19:53;;;;;;;;;;;35.50;55.70;;;;;;6275321;22;20261;-73
2023/07/18 07:22:18;;;;;;;;;;;35.60;56.50;;;;;;6276297;22;20237;-73
2023/07/18 07:24:46;;;;;;;;;;;35.70;58.40;;;;;;6275906;22;20332;-73
2023/07/18 07:27:13;;;;;;;;;;;36.00;56.40;;;;;;6275883;22;19903;-73
2023/07/18 07:29:40;;;;;;;;;;;36.20;56.30;;;;;;6275247;22;19912;-73
2023/07/18 07:32:06;;;;;;;;;;;36.40;55.90;;;;;;6275654;22;20360;-73
2023/07/18 07:34:32;;;;;;;;;;;36.40;53.50;;;;;;6275744;22;20317;-73
2023/07/18 07:36:57;;;;;;;;;;;36.50;55.50;;;;;;6275936;22;19911;-73
2023/07/18 07:39:23;;;;;;;;;;;36.70;54.80;;;;;;6275410;22;19910;-72
2023/07/18 07:41:48;;;;;;;;;;;36.90;52.40;;;;;;6276262;22;20234;-72
2023/07/18 07:44:14;;;;;;;;;;;37.10;53.20;;;;;;6276072;22;19926;-73
2023/07/18 07:46:39;;;;;;;;;;;37.20;50.50;;;;;;6276265;22;20369;-73
2023/07/18 07:49:04;;;;;;;;;;;37.50;52.50;;;;;;6275696;22;20344;-73
2023/07/18 07:51:30;;;;;;;;;;;37.70;48.50;;;;;;6273398;22;20547;-73
2023/07/18 07:53:58;;;;;;;;;;;37.80;47.80;;;;;;6273265;22;20281;-73
2023/07/18 07:56:23;;;;;;;;;;;38.00;45.30;;;;;;6273831;22;20352;-73
2023/07/18 07:58:49;;;;;;;;;;;38.20;42.80;;;;;;6273918;22;20223;-73
2023/07/18 08:01:14;;;;;;;;;;;38.30;41.20;;;;;;6273830;22;20268;-73
2023/07/18 08:03:40;;;;;;;;;;;38.30;38.80;;;;;;6273962;22;20323;-73
2023/07/18 08:06:05;;;;;;;;;;;38.40;38.50;;;;;;6275147;22;19915;-73
2023/07/18 08:08:31;;;;;;;;;;;38.50;36.80;;;;;;6275796;22;20318;-73
2023/07/18 08:10:56;;;;;;;;;;;38.70;36.90;;;;;;6275288;22;19956;-74
2023/07/18 08:13:22;;;;;;;;;;;38.80;35.40;;;;;;6275923;22;19931;-73
2023/07/18 08:15:47;;;;;;;;;;;39.00;33.90;;;;;;6276760;22;19990;-73
2023/07/18 08:18:13;;;;;;;;;;;39.20;33.20;;;;;;6276138;22;20321;-74
2023/07/18 08:20:38;;;;;;;;;;;39.30;33.20;;;;;;6276035;22;20321;-74
2023/07/18 08:23:04;;;;;;;;;;;39.40;29.60;;;;;;6276063;22;19926;-74
2023/07/18 08:25:29;;;;;;;;;;;39.20;28.20;;;;;;6276174;22;19915;-74
2023/07/18 08:27:54;;;;;;;;;;;39.10;28.40;;;;;;6277430;22;20272;-73
2023/07/18 08:30:21;;;;;;;;;;;39.20;28.60;;;;;;6276824;22;19930;-74
2023/07/18 08:32:46;;;;;;;;;;;39.30;27.80;;;;;;6276604;22;20337;-74
2023/07/18 08:35:12;;;;;;;;;;;39.50;28.50;;;;;;6276361;22;20348;-73
2023/07/18 08:37:39;;;;;;;;;;;39.70;27.70;;;;;;6276975;22;19950;-73
2023/07/18 08:40:05;;;;;;;;;;;40.00;28.00;;;;;;6277012;22;19942;-74
2023/07/18 08:42:32;;;;;;;;;;;40.20;26.20;;;;;;6277561;22;19909;-74
2023/07/18 08:44:58;;;;;;;;;;;40.30;25.60;;;;;;6277527;22;20327;-74
2023/07/18 08:47:25;;;;;;;;;;;40.40;25.20;;;;;;6277124;22;20244;-74
2023/07/18 08:49:51;;;;;;;;;;;40.60;25.10;;;;;;6276340;22;19998;-74
2023/07/18 08:52:16;;;;;;;;;;;40.90;24.60;;;;;;6275644;22;19941;-74
2023/07/18 08:54:42;;;;;;;;;;;41.00;23.80;;;;;;6278855;22;19910;-74
2023/07/18 08:57:07;;;;;;;;;;;41.10;24.20;;;;;;6278287;22;19911;-73
2023/07/18 08:59:33;;;;;;;;;;;41.00;23.60;;;;;;6279022;22;19903;-74
2023/07/18 09:01:58;;;;;;;;;;;41.00;23.30;;;;;;6277831;22;19907;-74
2023/07/18 09:04:24;;;;;;;;;;;41.20;22.50;;;;;;6278159;22;20645;-74
2023/07/18 09:06:55;;;;;;;;;;;41.20;22.50;;;;;;6283593;22;19939;-74
2023/07/18 09:09:23;;;;;;;;;;;41.30;22.50;;;;;;6256731;22;19903;-74
2023/07/18 09:12:02;;;;;;;;;;;41.30;21.90;;;;;;6282043;22;19936;-74
2023/07/18 09:14:29;;;;;;;;;;;41.40;21.70;;;;;;6283646;22;19909;-74
2023/07/18 09:16:55;;;;;;;;;;;41.00;21.00;;;;;;6281759;22;19981;-75
2023/07/18 09:19:40;;;;;;;;;;;40.70;21.00;;;;;;6282165;22;19909;-74
2023/07/18 09:22:13;;;;;;;;;;;40.60;21.80;;;;;;6278850;22;19990;-73
2023/07/18 09:24:39;;;;;;;;;;;40.50;21.70;;;;;;6279583;22;19922;-75
2023/07/18 09:27:06;;;;;;;;;;;40.30;21.70;;;;;;6282111;22;19915;-75
2023/07/18 09:29:31;;;;;;;;;;;40.30;21.90;;;;;;6280557;22;19923;-75
2023/07/18 09:31:57;;;;;;;;;;;40.40;21.50;;;;;;6277419;22;20368;-74
2023/07/18 09:34:24;;;;;;;;;;;40.40;21.30;;;;;;6276047;22;20321;-75
2023/07/18 09:36:54;;;;;;;;;;;40.50;21.40;;;;;;6277795;22;19923;-75
2023/07/18 09:39:20;;;;;;;;;;;40.70;21.60;;;;;;6277310;22;19911;-75
2023/07/18 09:41:45;;;;;;;;;;;40.80;21.40;;;;;;6278096;22;19907;-75
2023/07/18 09:44:11;;;;;;;;;;;40.90;21.60;;;;;;6278416;22;19926;-74
2023/07/18 09:46:37;;;;;;;;;;;41.20;21.50;;;;;;6278665;22;20317;-75
2023/07/18 09:49:03;;;;;;;;;;;41.40;21.10;;;;;;6278451;22;19945;-74
2023/07/18 09:51:33;;;;;;;;;;;41.70;20.80;;;;;;6277281;22;19970;-74
2023/07/18 09:53:58;;;;;;;;;;;41.80;20.20;;;;;;6276282;22;19918;-75
2023/07/18 09:56:25;;;;;;;;;;;41.50;20.20;;;;;;6275973;22;19946;-74
2023/07/18 09:58:52;;;;;;;;;;;41.30;20.40;;;;;;6277790;22;19903;-75
2023/07/18 10:01:19;;;;;;;;;;;41.40;20.40;;;;;;6277389;22;19937;-75
2023/07/18 10:03:46;;;;;;;;;;;41.50;20.70;;;;;;6275504;22;19911;-74
2023/07/18 10:06:13;;;;;;;;;;;41.80;20.50;;;;;;6276713;22;20014;-74
2023/07/18 10:08:39;;;;;;;;;;;42.00;20.30;;;;;;6276885;22;19907;-75
2023/07/18 10:11:08;;;;;;;;;;;42.20;19.80;;;;;;6277377;22;19911;-75
2023/07/18 10:13:52;;;;;;;;;;;42.40;19.50;;;;;;6277091;22;19904;-73
2023/07/18 10:16:18;;;;;;;;;;;42.50;19.30;;;;;;6277916;22;20352;-75
2023/07/18 10:18:45;;;;;;;;;;;42.50;19.70;;;;;;6277374;22;19911;-75
2023/07/18 10:21:11;;;;;;;;;;;42.40;19.30;;;;;;6278167;22;20232;-75
2023/07/18 10:23:43;;;;;;;;;;;42.30;19.80;;;;;;6276776;22;19903;-75
2023/07/18 10:26:09;;;;;;;;;;;42.30;19.70;;;;;;6273578;22;19915;-75
2023/07/18 10:28:41;;;;;;;;;;;42.50;19.20;;;;;;6275319;22;19911;-72
2023/07/18 10:31:06;;;;;;;;;;;42.70;19.00;;;;;;6273600;22;19911;-73
2023/07/18 10:33:32;;;;;;;;;;;42.70;18.60;;;;;;6272181;22;20329;-73
2023/07/18 10:35:57;;;;;;;;;;;42.70;18.10;;;;;;6271892;22;19926;-74
2023/07/18 10:38:23;;;;;;;;;;;42.70;17.90;;;;;;6274400;22;20318;-75
2023/07/18 10:40:49;;;;;;;;;;;42.60;18.20;;;;;;6274444;22;20291;-74
2023/07/18 10:43:18;;;;;;;;;;;42.50;17.70;;;;;;6274152;22;19982;-74
2023/07/18 10:45:44;;;;;;;;;;;42.40;18.10;;;;;;6273734;22;19915;-74
2023/07/18 10:48:14;;;;;;;;;;;42.50;18.00;;;;;;6273360;22;19956;-74
2023/07/18 10:50:40;;;;;;;;;;;42.60;17.40;;;;;;6274418;22;19919;-73
2023/07/18 10:53:09;;;;;;;;;;;42.40;17.30;;;;;;6270824;22;20226;-74
2023/07/18 10:55:35;;;;;;;;;;;42.50;17.80;;;;;;6273794;22;20384;-74
2023/07/18 10:58:00;;;;;;;;;;;42.60;18.00;;;;;;6274196;22;19961;-74
2023/07/18 11:00:26;;;;;;;;;;;42.80;18.20;;;;;;6271774;22;19946;-74
2023/07/18 11:02:51;;;;;;;;;;;43.10;18.10;;;;;;6269917;22;19961;-74
2023/07/18 11:05:17;;;;;;;;;;;43.40;17.90;;;;;;6272998;22;20113;-73
2023/07/18 11:07:43;;;;;;;;;;;43.60;17.30;;;;;;6274032;22;19907;-74
2023/07/18 11:10:09;;;;;;;;;;;43.70;16.40;;;;;;6273924;22;19911;-74
2023/07/18 11:12:35;;;;;;;;;;;43.30;16.60;;;;;;6269095;22;20090;-74
2023/07/18 11:15:02;;;;;;;;;;;43.20;16.70;;;;;;6273184;22;19943;-74
2023/07/18 11:17:28;;;;;;;;;;;43.00;16.90;;;;;;6274325;22;19914;-74
2023/07/18 11:19:56;;;;;;;;;;;43.00;16.80;;;;;;6273898;22;20302;-74
2023/07/18 11:22:21;;;;;;;;;;;42.90;16.30;;;;;;6270232;22;19961;-74
2023/07/18 11:24:47;;;;;;;;;;;42.50;16.20;;;;;;6246366;22;19907;-75
2023/07/18 11:27:19;;;;;;;;;;;42.00;16.60;;;;;;6273733;22;20011;-75
2023/07/18 11:30:09;;;;;;;;;;;41.50;16.80;;;;;;6275004;22;20292;-75
2023/07/18 11:32:38;;;;;;;;;;;40.90;17.40;;;;;;6272060;22;20383;-74
2023/07/18 11:35:06;;;;;;;;;;;40.40;17.80;;;;;;6276940;22;19907;-75
2023/07/18 11:37:32;;;;;;;;;;;40.00;17.70;;;;;;6276219;22;20006;-74
2023/07/18 11:39:58;;;;;;;;;;;39.40;17.60;;;;;;6275702;22;19907;-74
2023/07/18 11:42:42;;;;;;;;;;;38.80;18.10;;;;;;6272011;22;20326;-75
2023/07/18 11:45:10;;;;;;;;;;;38.40;18.90;;;;;;6275077;22;19918;-74
2023/07/18 11:47:37;;;;;;;;;;;38.10;19.20;;;;;;6275628;22;19931;-75
2023/07/18 11:50:07;;;;;;;;;;;37.80;19.40;;;;;;6276977;22;19908;-75
2023/07/18 11:52:33;;;;;;;;;;;37.70;19.70;;;;;;6271875;22;20329;-76
2023/07/18 11:54:59;;;;;;;;;;;37.60;19.80;;;;;;6275361;22;19987;-75
2023/07/18 11:57:24;;;;;;;;;;;37.50;19.90;;;;;;6275005;22;19919;-73
2023/07/18 11:59:50;;;;;;;;;;;37.70;19.80;;;;;;6275591;22;19926;-76
2023/07/18 12:02:15;;;;;;;;;;;38.20;19.50;;;;;;6271356;22;20345;-76
2023/07/18 12:04:40;;;;;;;;;;;38.40;19.20;;;;;;6275138;22;19914;-76
2023/07/18 12:07:06;;;;;;;;;;;38.70;18.80;;;;;;6274775;22;19911;-76
2023/07/18 12:09:32;;;;;;;;;;;39.00;18.70;;;;;;6275236;22;19908;-76
2023/07/18 12:11:57;;;;;;;;;;;39.30;18.80;;;;;;6271150;22;19910;-73
2023/07/18 12:14:23;;;;;;;;;;;39.70;18.30;;;;;;6275398;22;19957;-75
2023/07/18 12:16:48;;;;;;;;;;;39.80;17.80;;;;;;6247984;22;20245;-76
2023/07/18 12:19:14;;;;;;;;;;;39.90;17.80;;;;;;6247345;22;19982;-76
2023/07/18 12:21:39;;;;;;;;;;;40.00;17.90;;;;;;6271578;22;19922;-75
2023/07/18 12:24:05;;;;;;;;;;;40.00;17.40;;;;;;6274703;22;19910;-76
2023/07/18 12:26:30;;;;;;;;;;;39.90;17.30;;;;;;6247580;22;19946;-76
2023/07/18 12:28:56;;;;;;;;;;;39.80;17.50;;;;;;6276010;22;19927;-76
2023/07/18 12:31:22;;;;;;;;;;;39.80;17.40;;;;;;6244779;22;19965;-75
2023/07/18 12:33:47;;;;;;;;;;;39.90;17.10;;;;;;6273995;22;20245;-75
2023/07/18 12:36:13;;;;;;;;;;;40.00;17.60;;;;;;6274659;22;20280;-74
2023/07/18 12:38:38;;;;;;;;;;;40.20;17.60;;;;;;6273980;22;19989;-75
2023/07/18 12:41:03;;;;;;;;;;;40.30;17.40;;;;;;6273529;22;19915;-75
2023/07/18 12:43:29;;;;;;;;;;;40.30;17.00;;;;;;6273393;22;19907;-75
2023/07/18 12:45:55;;;;;;;;;;;40.30;16.90;;;;;;6275367;22;19946;-76
2023/07/18 12:48:21;;;;;;;;;;;40.20;16.80;;;;;;6274374;22;20283;-77
2023/07/18 12:50:46;;;;;;;;;;;39.90;16.80;;;;;;6273868;22;19938;-72
2023/07/18 12:53:12;;;;;;;;;;;39.80;17.10;;;;;;6272331;22;19907;-76
2023/07/18 12:55:37;;;;;;;;;;;39.80;17.20;;;;;;6275208;22;19965;-76
2023/07/18 12:58:03;;;;;;;;;;;39.90;17.50;;;;;;6274642;22;19915;-75
2023/07/18 13:00:28;;;;;;;;;;;40.00;17.30;;;;;;6275286;22;20510;-75
2023/07/18 13:02:55;;;;;;;;;;;40.00;17.60;;;;;;6270608;22;19907;-75
2023/07/18 13:05:21;;;;;;;;;;;40.00;17.40;;;;;;6275010;22;20344;-74
2023/07/18 13:07:46;;;;;;;;;;;39.80;16.80;;;;;;6274558;22;19911;-76
2023/07/18 13:10:12;;;;;;;;;;;39.10;16.90;;;;;;6274881;22;19986;-76
2023/07/18 13:12:37;;;;;;;;;;;38.90;17.40;;;;;;6271177;22;19907;-76
2023/07/18 13:15:03;;;;;;;;;;;38.90;17.70;;;;;;6274627;22;19907;-76
2023/07/18 13:17:28;;;;;;;;;;;39.10;17.80;;;;;;6275358;22;20333;-76
2023/07/18 13:19:54;;;;;;;;;;;39.20;17.90;;;;;;6275136;22;19907;-74
2023/07/18 13:22:20;;;;;;;;;;;39.40;17.60;;;;;;6275373;22;19994;-76
2023/07/18 13:24:45;;;;;;;;;;;39.40;17.60;;;;;;6274740;22;20373;-76
2023/07/18 13:27:11;;;;;;;;;;;39.50;17.30;;;;;;6248105;22;19943;-76
2023/07/18 13:29:36;;;;;;;;;;;39.50;17.50;;;;;;6273677;22;19904;-77
2023/07/18 13:32:02;;;;;;;;;;;39.70;17.50;;;;;;6274886;22;19918;-76
2023/07/18 13:34:27;;;;;;;;;;;39.80;17.70;;;;;;6274944;22;19938;-76
2023/07/18 13:36:53;;;;;;;;;;;39.70;16.50;;;;;;6275339;22;19934;-77
2023/07/18 13:39:18;;;;;;;;;;;39.30;16.80;;;;;;6274678;22;20340;-75
2023/07/18 13:41:44;;;;;;;;;;;39.00;17.10;;;;;;6275525;22;20230;-73
2023/07/18 13:44:09;;;;;;;;;;;38.60;17.10;;;;;;6275544;22;19913;-76
2023/07/18 13:46:35;;;;;;;;;;;38.00;17.20;;;;;;6275736;22;19915;-76
2023/07/18 13:49:01;;;;;;;;;;;37.60;17.50;;;;;;6274523;22;19911;-76
2023/07/18 13:51:26;;;;;;;;;;;37.50;17.80;;;;;;6275264;22;19915;-73
2023/07/18 13:53:52;;;;;;;;;;;37.20;17.90;;;;;;6275213;22;19914;-75
2023/07/18 13:56:17;;;;;;;;;;;37.20;18.20;;;;;;6275612;22;19946;-73
2023/07/18 13:58:43;;;;;;;;;;;37.40;18.00;;;;;;6247986;22;19926;-76
2023/07/18 14:01:08;;;;;;;;;;;37.00;18.20;;;;;;6275185;22;20406;-75
2023/07/18 14:03:35;;;;;;;;;;;36.60;18.50;;;;;;6243912;22;20270;-77
2023/07/18 14:06:01;;;;;;;;;;;36.20;18.30;;;;;;6275223;22;19954;-75
2023/07/18 14:08:29;;;;;;;;;;;36.00;18.80;;;;;;6275670;22;19986;-76
2023/07/18 14:10:54;;;;;;;;;;;36.30;19.10;;;;;;6275478;22;19912;-75